Time;durP1;ratioP1;P1;durP2;ratioP2;P2;SDS_P1;SDS_P2;PMS_P1;PMS_P2;Temp;Humidity;BMP_temperature;BMP_pressure;BME280_temperature;BME280_humidity;BME280_pressure;Samples;Min_cycle;Max_cycle;Signal;HPM_P1;HPM_P2
2022/08/21 03:01:19;;;;;;;0.80;0.60;;;19.10;67.90;;;;;;5808247;22;20491;-74
2022/08/21 03:03:49;;;;;;;0.90;0.70;;;19.00;68.10;;;;;;5034069;28;20483;-74
2022/08/21 03:06:17;;;;;;;1.13;0.80;;;19.00;68.00;;;;;;5033868;28;20452;-73
2022/08/21 03:08:44;;;;;;;0.80;0.60;;;19.00;68.20;;;;;;5033840;28;20452;-73
2022/08/21 03:11:12;;;;;;;0.70;0.70;;;19.00;68.20;;;;;;5033786;28;20550;-73
2022/08/21 03:13:39;;;;;;;0.80;0.80;;;18.90;68.30;;;;;;5033643;28;20459;-73
2022/08/21 03:16:07;;;;;;;0.70;0.70;;;18.90;68.40;;;;;;5035136;28;20534;-74
2022/08/21 03:18:35;;;;;;;0.70;0.60;;;18.90;68.40;;;;;;5033725;28;20560;-73
2022/08/21 03:21:02;;;;;;;0.70;0.70;;;18.80;68.40;;;;;;5033836;28;20559;-73
2022/08/21 03:23:30;;;;;;;0.80;0.70;;;18.80;68.60;;;;;;5033561;28;20562;-73
2022/08/21 03:25:57;;;;;;;0.80;0.60;;;18.80;68.60;;;;;;5033557;28;20455;-73
2022/08/21 03:28:24;;;;;;;0.93;0.70;;;18.80;68.80;;;;;;5033217;28;20934;-73
2022/08/21 03:30:52;;;;;;;0.70;0.60;;;18.70;68.80;;;;;;5033439;28;20491;-73
2022/08/21 03:33:19;;;;;;;0.80;0.60;;;18.70;68.90;;;;;;5033484;28;20490;-73
2022/08/21 03:35:52;;;;;;;0.70;0.60;;;18.60;69.40;;;;;;5033451;28;20451;-73
2022/08/21 03:38:19;;;;;;;0.70;0.70;;;18.60;69.40;;;;;;5033454;28;20478;-73
2022/08/21 03:40:46;;;;;;;0.80;0.60;;;18.50;69.60;;;;;;5033341;28;20525;-73
2022/08/21 03:43:12;;;;;;;0.70;0.60;;;18.40;70.00;;;;;;5033180;28;20475;-73
2022/08/21 03:45:40;;;;;;;0.90;0.60;;;18.40;70.40;;;;;;5033316;28;20447;-73
2022/08/21 03:48:08;;;;;;;1.07;0.80;;;18.30;70.60;;;;;;5033325;28;20510;-73
2022/08/21 03:50:37;;;;;;;0.70;0.70;;;18.30;70.50;;;;;;5033198;28;20823;-73
2022/08/21 03:53:07;;;;;;;0.80;0.70;;;18.30;70.40;;;;;;5033847;28;20482;-73
2022/08/21 03:55:34;;;;;;;0.70;0.63;;;18.30;70.50;;;;;;5033251;28;20460;-73
2022/08/21 03:58:01;;;;;;;1.40;0.70;;;18.30;70.50;;;;;;5033225;28;20455;-73
2022/08/21 04:00:28;;;;;;;0.80;0.70;;;18.30;70.40;;;;;;5033147;28;20487;-73
2022/08/21 04:02:54;;;;;;;0.97;0.80;;;18.20;70.40;;;;;;5032936;28;20553;-73
2022/08/21 04:05:27;;;;;;;0.80;0.80;;;18.20;70.50;;;;;;5033248;28;20498;-72
2022/08/21 04:07:55;;;;;;;0.80;0.80;;;18.10;70.50;;;;;;5033101;28;20466;-73
2022/08/21 04:10:25;;;;;;;0.70;0.70;;;18.10;70.60;;;;;;5033040;28;20466;-72
2022/08/21 04:12:51;;;;;;;0.90;0.70;;;18.00;70.70;;;;;;5033048;28;20436;-73
2022/08/21 04:15:18;;;;;;;0.80;0.60;;;17.90;70.90;;;;;;5033026;28;20447;-73
2022/08/21 04:17:45;;;;;;;0.97;0.70;;;17.90;71.20;;;;;;5033026;28;20451;-73
2022/08/21 04:20:12;;;;;;;0.70;0.70;;;17.90;71.40;;;;;;5033014;28;20502;-73
2022/08/21 04:22:39;;;;;;;0.80;0.70;;;17.80;71.20;;;;;;5032846;28;20481;-73
2022/08/21 04:25:07;;;;;;;0.80;0.73;;;17.80;71.30;;;;;;5032996;28;20506;-73
2022/08/21 04:27:35;;;;;;;0.70;0.60;;;17.80;71.20;;;;;;5033000;28;20509;-73
2022/08/21 04:30:02;;;;;;;0.80;0.60;;;17.80;71.40;;;;;;5032572;28;20849;-73
2022/08/21 04:32:29;;;;;;;0.80;0.70;;;17.80;71.40;;;;;;5032828;28;20495;-73
2022/08/21 04:34:59;;;;;;;0.80;0.70;;;17.70;71.70;;;;;;5032918;28;20447;-73
2022/08/21 04:37:26;;;;;;;0.80;0.60;;;17.70;72.10;;;;;;5033117;28;20497;-73
2022/08/21 04:39:52;;;;;;;0.70;0.70;;;17.60;72.30;;;;;;5032952;28;20462;-74
2022/08/21 04:42:19;;;;;;;1.30;0.80;;;17.50;72.50;;;;;;5032961;28;20479;-73
2022/08/21 04:44:48;;;;;;;1.00;0.80;;;17.50;73.00;;;;;;5032758;28;20590;-73
2022/08/21 04:47:15;;;;;;;0.97;0.90;;;17.50;73.10;;;;;;5033039;28;20458;-73
2022/08/21 04:49:42;;;;;;;0.80;0.60;;;17.50;73.40;;;;;;5032737;28;20836;-73
2022/08/21 04:52:09;;;;;;;0.80;0.70;;;17.50;73.60;;;;;;5032893;28;20521;-72
2022/08/21 04:54:35;;;;;;;0.90;0.70;;;17.50;73.60;;;;;;5032747;28;20926;-73
2022/08/21 04:57:06;;;;;;;0.90;0.70;;;17.60;73.30;;;;;;5036276;28;20452;-74
2022/08/21 04:59:37;;;;;;;0.90;0.70;;;17.70;73.00;;;;;;5036332;28;20847;-73
2022/08/21 05:02:06;;;;;;;0.77;0.70;;;17.80;72.70;;;;;;5035883;28;20479;-73
2022/08/21 05:04:37;;;;;;;1.73;1.27;;;17.90;72.60;;;;;;5036352;28;20475;-73
2022/08/21 05:07:08;;;;;;;0.70;0.60;;;18.00;72.10;;;;;;5036144;28;20534;-74
2022/08/21 05:09:35;;;;;;;0.80;0.67;;;18.20;71.60;;;;;;5036104;28;20494;-74
2022/08/21 05:12:03;;;;;;;0.70;0.70;;;18.30;71.30;;;;;;5035959;28;20475;-73
2022/08/21 05:14:30;;;;;;;0.80;0.60;;;18.40;71.30;;;;;;5035726;28;20966;-73
2022/08/21 05:16:56;;;;;;;0.70;0.60;;;18.60;71.20;;;;;;5035915;28;20447;-73
2022/08/21 05:19:24;;;;;;;1.00;0.60;;;18.70;71.10;;;;;;5035892;28;20506;-73
2022/08/21 05:21:51;;;;;;;0.70;0.63;;;18.90;71.10;;;;;;5035468;28;20926;-73
2022/08/21 05:24:18;;;;;;;0.70;0.70;;;19.00;70.70;;;;;;5035393;28;20990;-73
2022/08/21 05:26:45;;;;;;;1.00;0.70;;;19.20;70.40;;;;;;5035742;28;20542;-73
2022/08/21 05:29:12;;;;;;;0.80;0.70;;;19.40;69.80;;;;;;5035702;28;20498;-73
2022/08/21 05:31:39;;;;;;;0.80;0.70;;;19.50;69.80;;;;;;5035599;28;20472;-73
2022/08/21 05:34:06;;;;;;;0.70;0.60;;;19.70;69.40;;;;;;5035562;28;20456;-74
2022/08/21 05:36:34;;;;;;;1.13;0.60;;;19.80;69.20;;;;;;5035539;28;20494;-74
2022/08/21 05:39:01;;;;;;;0.80;0.70;;;20.00;68.50;;;;;;5035525;28;20455;-74
2022/08/21 05:41:28;;;;;;;0.80;0.60;;;20.10;68.70;;;;;;5035395;28;20471;-73
2022/08/21 05:43:55;;;;;;;0.70;0.60;;;20.30;67.70;;;;;;5035339;28;20480;-73
2022/08/21 05:46:21;;;;;;;1.17;1.07;;;20.50;67.10;;;;;;5035354;28;20452;-74
2022/08/21 05:48:48;;;;;;;0.80;0.60;;;20.60;66.70;;;;;;5035346;28;20447;-73
2022/08/21 05:51:16;;;;;;;0.70;0.60;;;20.80;66.20;;;;;;5035188;28;20474;-73
2022/08/21 05:53:45;;;;;;;0.70;0.60;;;20.80;65.70;;;;;;5036302;28;20448;-73
2022/08/21 05:56:13;;;;;;;0.73;0.63;;;20.70;65.90;;;;;;5035166;28;20443;-74
2022/08/21 05:58:39;;;;;;;0.80;0.70;;;20.80;66.40;;;;;;5035125;28;20450;-73
2022/08/21 06:01:08;;;;;;;0.70;0.60;;;21.00;66.80;;;;;;5034811;28;20491;-74
2022/08/21 06:03:37;;;;;;;0.70;0.60;;;21.20;66.20;;;;;;5034987;28;20487;-74
2022/08/21 06:06:04;;;;;;;0.70;0.70;;;21.40;65.20;;;;;;5034273;28;20505;-73
2022/08/21 06:08:31;;;;;;;0.70;0.70;;;21.50;64.60;;;;;;5034573;28;20448;-73
2022/08/21 06:11:01;;;;;;;0.87;0.77;;;21.70;64.50;;;;;;5034845;28;20476;-73
2022/08/21 06:13:28;;;;;;;0.70;0.60;;;21.80;63.20;;;;;;5034903;28;20436;-74
2022/08/21 06:16:03;;;;;;;0.80;0.70;;;22.00;63.60;;;;;;5034817;28;20447;-73
2022/08/21 06:18:30;;;;;;;0.90;0.80;;;22.20;62.40;;;;;;5034791;28;20438;-73
2022/08/21 06:20:56;;;;;;;0.70;0.60;;;22.30;62.60;;;;;;5034877;28;20463;-73
2022/08/21 06:23:23;;;;;;;0.90;0.80;;;22.60;62.70;;;;;;5034575;28;20872;-73
2022/08/21 06:25:49;;;;;;;1.00;0.87;;;22.90;61.10;;;;;;5034583;28;20456;-73
2022/08/21 06:28:17;;;;;;;1.00;0.73;;;23.10;60.40;;;;;;5034549;28;20483;-73
2022/08/21 06:30:44;;;;;;;0.70;0.60;;;23.20;60.20;;;;;;5034422;28;20625;-73
2022/08/21 06:33:11;;;;;;;0.80;0.60;;;23.40;60.40;;;;;;5034475;28;20521;-73
2022/08/21 06:35:38;;;;;;;0.70;0.67;;;23.50;59.90;;;;;;5034420;28;20448;-74
2022/08/21 06:38:05;;;;;;;0.90;0.70;;;23.70;59.10;;;;;;5034387;28;20471;-74
2022/08/21 06:40:32;;;;;;;0.80;0.80;;;23.70;58.10;;;;;;5034262;28;20447;-73
2022/08/21 06:43:05;;;;;;;0.90;0.70;;;23.70;58.10;;;;;;5033949;28;20447;-73
2022/08/21 06:45:33;;;;;;;0.90;0.70;;;23.70;58.80;;;;;;5033905;28;20463;-74
2022/08/21 06:48:00;;;;;;;1.10;1.00;;;23.90;58.70;;;;;;5033919;28;20452;-74
2022/08/21 06:50:26;;;;;;;0.83;0.70;;;24.10;57.90;;;;;;5033791;28;20885;-73
2022/08/21 06:53:00;;;;;;;0.80;0.80;;;24.30;57.00;;;;;;5033821;28;20930;-73
2022/08/21 06:55:27;;;;;;;0.70;0.70;;;24.50;57.00;;;;;;5034423;28;20785;-73
2022/08/21 06:57:53;;;;;;;0.70;0.60;;;24.70;56.10;;;;;;5034474;28;20452;-73
2022/08/21 07:00:21;;;;;;;0.93;0.70;;;24.70;56.90;;;;;;5034132;28;20451;-74
2022/08/21 07:02:49;;;;;;;1.20;0.70;;;24.90;56.80;;;;;;5033875;28;20476;-73
2022/08/21 07:05:16;;;;;;;0.70;0.60;;;25.20;56.40;;;;;;5033954;28;20534;-73
2022/08/21 07:07:42;;;;;;;0.90;0.70;;;25.30;55.90;;;;;;5034109;28;20523;-74
2022/08/21 07:10:10;;;;;;;0.70;0.60;;;25.50;56.10;;;;;;5034979;28;20448;-74
2022/08/21 07:12:36;;;;;;;0.70;0.60;;;25.70;55.30;;;;;;5033760;28;21073;-74
2022/08/21 07:15:04;;;;;;;0.70;0.63;;;25.40;55.20;;;;;;5033998;28;20449;-74
2022/08/21 07:17:31;;;;;;;0.80;0.70;;;25.30;56.50;;;;;;5033690;28;20456;-75
2022/08/21 07:19:59;;;;;;;0.80;0.70;;;25.00;56.70;;;;;;5033537;28;20451;-75
2022/08/21 07:22:27;;;;;;;0.80;0.70;;;24.90;57.50;;;;;;5033494;28;20467;-75
2022/08/21 07:24:54;;;;;;;0.70;0.70;;;24.70;58.00;;;;;;5033206;28;20857;-72
2022/08/21 07:27:20;;;;;;;0.90;0.90;;;24.70;57.80;;;;;;5033631;28;20497;-75
2022/08/21 07:29:47;;;;;;;0.70;0.70;;;24.50;58.40;;;;;;5033554;28;20447;-75
2022/08/21 07:32:15;;;;;;;0.70;0.70;;;24.20;58.00;;;;;;5033179;28;20468;-75
2022/08/21 07:34:42;;;;;;;0.80;0.80;;;24.30;57.80;;;;;;5033562;28;20524;-75
2022/08/21 07:37:10;;;;;;;1.40;0.60;;;24.50;57.80;;;;;;5033377;28;21009;-75
2022/08/21 07:39:36;;;;;;;1.10;0.80;;;24.70;58.30;;;;;;5033162;28;20452;-75
2022/08/21 07:42:03;;;;;;;0.70;0.70;;;24.60;58.50;;;;;;5033354;28;20464;-75
2022/08/21 07:44:30;;;;;;;0.70;0.60;;;24.70;58.20;;;;;;5033317;28;20575;-76
2022/08/21 07:46:57;;;;;;;0.70;0.70;;;24.70;58.40;;;;;;5033354;28;20451;-75
2022/08/21 07:49:23;;;;;;;0.70;0.60;;;24.90;58.40;;;;;;5033304;28;20448;-75
2022/08/21 07:51:50;;;;;;;1.07;0.77;;;25.00;58.10;;;;;;5033200;28;20467;-75
2022/08/21 07:54:18;;;;;;;0.80;0.80;;;25.00;56.00;;;;;;5033250;28;20474;-75
2022/08/21 07:56:45;;;;;;;0.73;0.67;;;25.10;56.00;;;;;;5033214;28;20454;-75
2022/08/21 07:59:12;;;;;;;0.80;0.73;;;25.40;56.40;;;;;;5033069;28;20992;-75
2022/08/21 08:01:38;;;;;;;0.80;0.70;;;25.40;56.70;;;;;;5032939;28;20490;-75
2022/08/21 08:04:05;;;;;;;0.70;0.70;;;25.50;55.70;;;;;;5033134;28;20479;-75
2022/08/21 08:06:32;;;;;;;1.00;0.87;;;25.70;54.60;;;;;;5033118;28;20447;-75
2022/08/21 08:08:58;;;;;;;0.80;0.70;;;25.90;54.60;;;;;;5033083;28;20482;-75
2022/08/21 08:11:26;;;;;;;1.97;0.80;;;26.10;54.00;;;;;;5033065;28;20550;-75
2022/08/21 08:13:53;;;;;;;0.80;0.70;;;26.10;53.70;;;;;;5033016;28;20447;-75
2022/08/21 08:16:20;;;;;;;0.87;0.70;;;26.00;53.50;;;;;;5033040;28;20447;-75
2022/08/21 08:18:47;;;;;;;0.80;0.70;;;26.20;53.60;;;;;;5033035;28;20455;-75
2022/08/21 08:21:14;;;;;;;0.80;0.80;;;26.00;52.70;;;;;;5032945;28;20498;-75
2022/08/21 08:23:41;;;;;;;1.00;0.90;;;26.20;52.80;;;;;;5033001;28;20455;-75
2022/08/21 08:26:08;;;;;;;0.80;0.60;;;26.30;52.60;;;;;;5032876;28;20483;-75
2022/08/21 08:28:36;;;;;;;0.97;0.80;;;26.40;52.80;;;;;;5032915;28;20558;-75
2022/08/21 08:31:04;;;;;;;0.90;0.70;;;26.40;51.90;;;;;;5035484;28;20875;-75
2022/08/21 08:33:30;;;;;;;1.17;0.80;;;26.60;52.10;;;;;;5036710;28;20482;-75
2022/08/21 08:35:58;;;;;;;0.77;0.70;;;26.60;51.40;;;;;;5036681;28;20444;-75
2022/08/21 08:38:26;;;;;;;0.70;0.70;;;26.60;51.30;;;;;;5036402;28;20961;-75
2022/08/21 08:41:01;;;;;;;0.80;0.80;;;26.20;52.30;;;;;;5036556;28;20471;-75
2022/08/21 08:43:29;;;;;;;0.77;0.70;;;26.00;52.40;;;;;;5036619;28;20431;-75
2022/08/21 08:46:01;;;;;;;0.80;0.73;;;25.90;51.50;;;;;;5036469;28;20553;-75
2022/08/21 08:48:40;;;;;;;0.80;0.80;;;26.00;52.00;;;;;;5036489;28;20427;-75
2022/08/21 08:51:12;;;;;;;0.80;0.80;;;26.20;51.80;;;;;;5036463;28;20526;-75
2022/08/21 08:53:50;;;;;;;0.80;0.80;;;26.30;52.10;;;;;;5036386;28;20435;-75
2022/08/21 08:56:20;;;;;;;0.80;0.80;;;26.70;50.30;;;;;;5036325;28;20439;-75
2022/08/21 08:58:48;;;;;;;0.80;0.70;;;26.70;50.40;;;;;;5036250;28;20447;-75
2022/08/21 09:01:19;;;;;;;0.90;0.80;;;26.70;49.60;;;;;;5035869;28;20487;-75
2022/08/21 09:03:49;;;;;;;0.80;0.80;;;26.70;50.10;;;;;;5036046;28;20458;-75
2022/08/21 09:06:28;;;;;;;1.60;1.20;;;26.60;50.40;;;;;;5036053;28;20483;-75
2022/08/21 09:09:03;;;;;;;0.87;0.83;;;26.60;50.50;;;;;;5036120;28;20467;-75
2022/08/21 09:11:36;;;;;;;0.80;0.70;;;26.20;50.50;;;;;;5035980;28;20474;-75
2022/08/21 09:14:12;;;;;;;1.07;0.90;;;26.30;50.30;;;;;;5036052;28;20432;-75
2022/08/21 09:16:48;;;;;;;0.90;0.80;;;26.40;50.00;;;;;;5037284;28;20431;-75
2022/08/21 09:19:30;;;;;;;0.90;0.80;;;26.60;51.00;;;;;;5035938;28;20470;-75
2022/08/21 09:22:09;;;;;;;0.90;0.80;;;26.90;49.30;;;;;;5035821;28;20471;-75
2022/08/21 09:24:50;;;;;;;0.70;0.67;;;27.20;49.20;;;;;;5035774;28;20467;-76
2022/08/21 09:27:19;;;;;;;0.70;0.63;;;27.30;49.60;;;;;;5035785;28;20431;-76
2022/08/21 09:29:50;;;;;;;0.80;0.70;;;26.70;49.10;;;;;;5035388;28;20505;-76
2022/08/21 09:32:20;;;;;;;0.70;0.70;;;26.70;50.10;;;;;;5035336;28;20993;-75
2022/08/21 09:34:58;;;;;;;0.90;0.77;;;26.90;50.30;;;;;;5035600;28;20452;-74
2022/08/21 09:37:26;;;;;;;0.70;0.60;;;27.10;49.30;;;;;;5035268;28;21010;-76
2022/08/21 09:39:52;;;;;;;0.80;0.70;;;26.90;49.10;;;;;;5035518;28;20439;-77
2022/08/21 09:42:25;;;;;;;1.00;0.70;;;26.60;50.10;;;;;;5035147;28;20518;-75
2022/08/21 09:45:07;;;;;;;0.90;0.70;;;26.40;50.20;;;;;;5035416;28;20468;-75
2022/08/21 09:47:36;;;;;;;0.80;0.77;;;26.20;50.90;;;;;;5035487;28;20427;-76
2022/08/21 09:50:13;;;;;;;0.80;0.80;;;26.40;51.00;;;;;;5035102;28;20935;-75
2022/08/21 09:52:50;;;;;;;0.70;0.70;;;26.70;50.90;;;;;;5035255;28;20484;-75
2022/08/21 09:58:06;;;;;;;0.77;0.73;;;26.60;50.50;;;;;;5035040;28;20914;-75
2022/08/21 10:00:35;;;;;;;0.80;0.70;;;26.60;51.20;;;;;;5034748;28;20934;-76
2022/08/21 10:03:19;;;;;;;0.90;0.80;;;26.60;50.50;;;;;;5034804;28;21009;-77
2022/08/21 10:05:56;;;;;;;0.80;0.80;;;25.90;50.60;;;;;;5035018;28;20563;-75
2022/08/21 10:08:25;;;;;;;1.10;1.00;;;25.90;51.60;;;;;;5034690;28;20493;-76
2022/08/21 10:10:56;;;;;;;0.80;0.80;;;26.20;50.70;;;;;;5034877;28;20529;-79
2022/08/21 10:13:30;;;;;;;0.90;0.90;;;26.30;50.70;;;;;;5034932;28;20498;-76
2022/08/21 10:16:09;;;;;;;0.90;0.73;;;26.60;50.80;;;;;;5034877;28;20427;-77
2022/08/21 10:18:42;;;;;;;0.90;0.90;;;26.90;50.30;;;;;;5034819;28;20482;-76
2022/08/21 10:21:16;;;;;;;0.80;0.80;;;26.70;50.50;;;;;;5034738;28;20827;-75
2022/08/21 10:23:54;;;;;;;0.80;0.77;;;26.20;51.00;;;;;;5034751;28;20446;-76
2022/08/21 10:26:43;;;;;;;0.80;0.80;;;26.10;50.70;;;;;;5034590;28;20513;-75
2022/08/21 10:29:18;;;;;;;1.03;0.87;;;26.30;51.70;;;;;;5034674;28;20843;-76
2022/08/21 10:31:55;;;;;;;0.80;0.80;;;26.50;50.70;;;;;;5034218;28;21064;-75
2022/08/21 10:34:37;;;;;;;0.80;0.80;;;26.70;50.70;;;;;;5035609;28;20428;-76
2022/08/21 10:37:18;;;;;;;0.80;0.80;;;26.90;49.80;;;;;;5035178;28;20427;-72
2022/08/21 10:39:53;;;;;;;0.80;0.70;;;26.90;49.10;;;;;;5036392;28;20486;-74
2022/08/21 10:42:28;;;;;;;1.00;0.90;;;26.70;51.30;;;;;;5035580;28;20471;-75
2022/08/21 10:45:09;;;;;;;0.87;0.70;;;26.80;50.50;;;;;;5034500;28;20550;-74
2022/08/21 10:47:42;;;;;;;0.73;0.73;;;26.60;49.60;;;;;;5034524;28;20436;-74
2022/08/21 10:50:17;;;;;;;0.70;0.70;;;26.60;49.70;;;;;;5034282;28;20490;-74
2022/08/21 10:53:02;;;;;;;0.80;0.80;;;26.40;50.10;;;;;;5033796;28;20471;-73
2022/08/21 10:55:34;;;;;;;0.70;0.60;;;26.50;50.40;;;;;;5034327;28;20462;-73
2022/08/21 10:58:06;;;;;;;0.80;0.80;;;26.60;50.50;;;;;;5034124;28;20478;-74
2022/08/21 11:00:39;;;;;;;0.80;0.70;;;27.00;50.40;;;;;;5034025;28;20523;-72
2022/08/21 11:03:11;;;;;;;0.80;0.80;;;27.40;49.30;;;;;;5034753;28;20420;-73
2022/08/21 11:05:44;;;;;;;0.80;0.80;;;27.70;48.00;;;;;;5033867;28;20471;-75
2022/08/21 11:08:13;;;;;;;1.00;0.90;;;27.90;47.90;;;;;;5033962;28;20435;-76
2022/08/21 11:10:44;;;;;;;0.80;0.70;;;28.00;48.40;;;;;;5034198;28;20443;-75
2022/08/21 11:13:18;;;;;;;0.80;0.70;;;28.00;48.40;;;;;;5034793;28;20773;-76
2022/08/21 11:15:50;;;;;;;0.70;0.70;;;27.30;49.30;;;;;;5034392;28;20435;-77
2022/08/21 11:18:25;;;;;;;0.90;0.80;;;27.30;49.20;;;;;;5035089;28;20455;-78
2022/08/21 11:21:03;;;;;;;0.97;0.80;;;26.80;49.20;;;;;;5036439;28;20489;-76
2022/08/21 11:23:39;;;;;;;0.80;0.80;;;26.90;49.80;;;;;;5037219;28;20486;-76
2022/08/21 11:26:10;;;;;;;0.70;0.70;;;27.10;49.60;;;;;;5035760;28;20471;-75
2022/08/21 11:28:43;;;;;;;1.20;0.80;;;27.30;49.30;;;;;;5033592;28;20432;-76
2022/08/21 11:31:23;;;;;;;0.80;0.70;;;27.30;49.10;;;;;;5034002;28;20525;-76
2022/08/21 11:34:05;;;;;;;1.97;1.03;;;26.60;49.60;;;;;;5034553;28;20428;-76
2022/08/21 11:36:41;;;;;;;0.80;0.70;;;26.30;50.20;;;;;;5040813;28;20432;-77
2022/08/21 11:39:17;;;;;;;1.00;0.73;;;26.40;51.40;;;;;;5042729;28;20434;-77
2022/08/21 11:41:50;;;;;;;0.80;0.80;;;26.80;51.10;;;;;;5037544;28;20479;-76
2022/08/21 11:44:25;;;;;;;0.70;0.70;;;27.00;49.90;;;;;;5035181;28;20526;-75
2022/08/21 11:47:03;;;;;;;0.80;0.73;;;27.00;50.10;;;;;;5034426;28;21060;-78
2022/08/21 11:49:47;;;;;;;1.10;0.90;;;27.30;49.80;;;;;;5035114;28;20436;-74
2022/08/21 11:52:21;;;;;;;0.80;0.67;;;27.40;49.20;;;;;;5033565;28;20525;-80
2022/08/21 11:54:54;;;;;;;1.00;0.77;;;27.50;49.00;;;;;;5036352;28;20432;-77
2022/08/21 11:57:24;;;;;;;0.80;0.70;;;27.80;48.30;;;;;;5035041;28;20436;-75
2022/08/21 12:00:01;;;;;;;0.70;0.70;;;27.70;47.80;;;;;;5033217;28;20935;-75
2022/08/21 12:02:32;;;;;;;0.80;0.80;;;27.20;49.20;;;;;;5033123;28;20498;-76
2022/08/21 12:05:04;;;;;;;1.00;0.90;;;26.80;48.70;;;;;;5035805;28;20435;-75
2022/08/21 12:07:36;;;;;;;1.00;0.80;;;26.60;50.00;;;;;;5037292;28;20435;-75
2022/08/21 12:10:08;;;;;;;0.80;0.70;;;26.40;50.00;;;;;;5037227;28;20446;-74
2022/08/21 12:12:36;;;;;;;0.80;0.77;;;26.40;49.80;;;;;;5037112;28;20521;-75
2022/08/21 12:15:15;;;;;;;0.80;0.70;;;26.50;49.80;;;;;;5037057;28;20451;-74
2022/08/21 12:17:54;;;;;;;0.80;0.80;;;27.00;50.00;;;;;;5038004;28;20462;-75
2022/08/21 12:20:39;;;;;;;0.80;0.60;;;27.20;48.60;;;;;;5037054;28;20522;-75
2022/08/21 12:23:18;;;;;;;0.93;0.87;;;27.30;49.30;;;;;;5036919;28;20454;-74
2022/08/21 12:25:48;;;;;;;0.80;0.70;;;27.40;48.70;;;;;;5039215;28;20475;-76
2022/08/21 12:28:22;;;;;;;0.80;0.80;;;27.20;48.30;;;;;;5041451;28;20451;-76
2022/08/21 12:30:50;;;;;;;0.80;0.70;;;27.10;50.20;;;;;;5038752;28;20448;-76
2022/08/21 12:33:24;;;;;;;0.80;0.67;;;26.70;49.50;;;;;;5037749;28;20942;-76
2022/08/21 12:35:53;;;;;;;0.80;0.70;;;27.00;49.70;;;;;;5036824;28;20465;-75
2022/08/21 12:38:27;;;;;;;1.00;0.80;;;27.50;49.90;;;;;;5039356;28;20494;-76
2022/08/21 12:40:57;;;;;;;0.90;0.80;;;27.90;49.40;;;;;;5039224;28;20472;-76
2022/08/21 12:43:30;;;;;;;0.80;0.60;;;28.40;47.90;;;;;;5037841;28;20549;-76
2022/08/21 12:45:58;;;;;;;1.00;0.70;;;28.80;47.60;;;;;;5038047;28;20813;-76
2022/08/21 12:48:31;;;;;;;1.03;0.90;;;29.00;45.90;;;;;;5037958;28;20491;-76
2022/08/21 12:51:07;;;;;;;0.80;0.77;;;28.90;45.80;;;;;;5037708;28;20529;-75
2022/08/21 12:53:41;;;;;;;0.80;0.70;;;29.00;46.50;;;;;;5037174;28;20435;-75
2022/08/21 12:56:11;;;;;;;0.80;0.70;;;29.00;45.90;;;;;;5036704;28;20431;-76
2022/08/21 12:58:41;;;;;;;1.30;0.83;;;28.90;46.30;;;;;;5036748;28;20494;-75
2022/08/21 13:01:18;;;;;;;0.70;0.70;;;28.90;46.30;;;;;;5036399;28;20525;-75
2022/08/21 13:03:46;;;;;;;0.70;0.70;;;28.70;46.30;;;;;;5036686;28;20570;-75
2022/08/21 13:06:17;;;;;;;0.70;0.70;;;28.40;46.50;;;;;;5036074;28;21003;-75
2022/08/21 13:08:47;;;;;;;1.00;0.77;;;28.70;46.80;;;;;;5036757;28;20519;-75
2022/08/21 13:11:17;;;;;;;0.80;0.80;;;28.80;46.30;;;;;;5037461;28;20475;-75
2022/08/21 13:13:48;;;;;;;0.80;0.70;;;29.00;45.70;;;;;;5037317;28;20447;-75
2022/08/21 13:16:21;;;;;;;0.70;0.63;;;28.90;45.00;;;;;;5035967;28;20432;-75
2022/08/21 13:18:57;;;;;;;0.90;0.70;;;28.90;45.70;;;;;;5036161;28;20519;-75
2022/08/21 13:21:30;;;;;;;1.33;0.80;;;29.00;45.90;;;;;;5036399;28;20478;-75
2022/08/21 13:24:15;;;;;;;0.70;0.70;;;28.80;45.90;;;;;;5035802;28;20463;-75
2022/08/21 13:26:42;;;;;;;0.80;0.80;;;28.70;45.60;;;;;;5036154;28;20517;-75
2022/08/21 13:29:11;;;;;;;0.80;0.70;;;28.60;45.90;;;;;;5035989;28;20463;-75
2022/08/21 13:31:42;;;;;;;0.70;0.70;;;28.50;46.10;;;;;;5035691;28;20563;-76
2022/08/21 13:34:10;;;;;;;0.80;0.70;;;28.50;46.50;;;;;;5035888;28;20450;-76
2022/08/21 13:36:41;;;;;;;0.70;0.63;;;28.40;46.00;;;;;;5035670;28;20452;-75
2022/08/21 13:39:13;;;;;;;0.90;0.70;;;28.20;45.80;;;;;;5035587;28;20786;-75
2022/08/21 13:41:42;;;;;;;0.87;0.73;;;28.30;46.30;;;;;;5035457;28;20467;-76
2022/08/21 13:44:16;;;;;;;0.80;0.70;;;28.30;46.90;;;;;;5035497;28;20447;-76
2022/08/21 13:46:44;;;;;;;0.80;0.70;;;28.40;46.70;;;;;;5035449;28;20467;-76
2022/08/21 13:49:15;;;;;;;2.03;0.80;;;28.40;46.70;;;;;;5035467;28;21002;-76
2022/08/21 13:51:43;;;;;;;0.80;0.70;;;28.40;46.80;;;;;;5035217;28;20540;-76
2022/08/21 13:54:25;;;;;;;0.70;0.70;;;28.50;46.70;;;;;;5035190;28;20497;-76
2022/08/21 13:56:52;;;;;;;0.80;0.70;;;28.60;45.90;;;;;;5035319;28;20427;-76
2022/08/21 13:59:28;;;;;;;0.90;0.90;;;28.60;45.50;;;;;;5035159;28;20455;-75
2022/08/21 14:01:59;;;;;;;0.80;0.80;;;28.80;46.20;;;;;;5035216;28;20537;-75
2022/08/21 14:04:33;;;;;;;0.80;0.77;;;29.10;44.50;;;;;;5035383;28;20438;-75
2022/08/21 14:07:00;;;;;;;0.70;0.70;;;29.30;44.40;;;;;;5035080;28;20463;-77
2022/08/21 14:09:33;;;;;;;0.70;0.70;;;29.40;44.20;;;;;;5035018;28;20451;-76
2022/08/21 14:12:02;;;;;;;0.80;0.80;;;29.90;44.30;;;;;;5034979;28;20463;-75
2022/08/21 14:14:32;;;;;;;0.83;0.83;;;30.20;43.40;;;;;;5034931;28;20542;-76
2022/08/21 14:17:01;;;;;;;0.70;0.70;;;30.40;42.80;;;;;;5034926;28;20490;-76
2022/08/21 14:19:37;;;;;;;0.80;0.67;;;30.40;42.70;;;;;;5035253;28;20444;-76
2022/08/21 14:22:33;;;;;;;0.77;0.70;;;30.00;43.30;;;;;;5035021;28;20550;-77
2022/08/21 14:25:04;;;;;;;1.07;0.80;;;29.60;43.00;;;;;;5035720;28;20450;-77
2022/08/21 14:27:32;;;;;;;0.80;0.70;;;29.20;44.00;;;;;;5034049;28;20472;-75
2022/08/21 14:30:02;;;;;;;0.70;0.70;;;29.30;43.90;;;;;;5034743;28;20443;-75
2022/08/21 14:32:31;;;;;;;0.90;0.90;;;29.20;43.70;;;;;;5034574;28;20499;-77
2022/08/21 14:34:58;;;;;;;0.73;0.60;;;28.90;44.20;;;;;;5034780;28;20447;-76
2022/08/21 14:37:26;;;;;;;0.70;0.60;;;28.90;45.10;;;;;;5034762;28;20898;-75
2022/08/21 14:39:52;;;;;;;0.70;0.70;;;29.00;44.80;;;;;;5034660;28;20876;-76
2022/08/21 14:42:21;;;;;;;0.70;0.60;;;29.20;44.30;;;;;;5034626;28;20471;-75
2022/08/21 14:44:48;;;;;;;0.80;0.70;;;29.50;43.40;;;;;;5035929;28;20455;-76
2022/08/21 14:47:15;;;;;;;1.40;0.80;;;29.90;43.10;;;;;;5035076;28;20907;-73
2022/08/21 14:49:42;;;;;;;0.70;0.60;;;30.30;42.20;;;;;;5034639;28;20498;-76
2022/08/21 14:52:09;;;;;;;0.90;0.90;;;30.70;42.10;;;;;;5034389;28;20476;-76
2022/08/21 14:54:36;;;;;;;0.80;0.77;;;31.10;42.20;;;;;;5034740;28;20590;-76
2022/08/21 14:57:06;;;;;;;0.80;0.70;;;31.10;39.70;;;;;;5034874;28;20443;-76
2022/08/21 14:59:34;;;;;;;0.80;0.80;;;31.10;40.40;;;;;;5034364;28;20450;-76
2022/08/21 15:02:03;;;;;;;1.10;0.90;;;31.40;39.60;;;;;;5033789;28;20970;-76
2022/08/21 15:04:30;;;;;;;1.93;0.80;;;31.70;39.50;;;;;;5034227;28;20454;-76
2022/08/21 15:06:57;;;;;;;0.80;0.70;;;32.30;38.90;;;;;;5034343;28;20853;-75
2022/08/21 15:09:24;;;;;;;1.13;0.80;;;33.20;37.40;;;;;;5035031;28;20447;-76
2022/08/21 15:11:52;;;;;;;0.97;0.70;;;34.20;35.90;;;;;;5034082;28;20559;-73
2022/08/21 15:14:22;;;;;;;0.90;0.90;;;35.10;34.60;;;;;;5034450;28;20950;-73
2022/08/21 15:16:50;;;;;;;0.80;0.70;;;35.60;34.60;;;;;;5035922;28;20447;-76
2022/08/21 15:19:17;;;;;;;0.80;0.70;;;36.40;34.40;;;;;;5034017;28;20444;-76
2022/08/21 15:21:44;;;;;;;1.00;0.90;;;37.10;33.00;;;;;;5034411;28;20471;-77
2022/08/21 15:24:11;;;;;;;0.70;0.67;;;37.40;33.40;;;;;;5034467;28;20538;-75
2022/08/21 15:26:37;;;;;;;0.70;0.60;;;36.60;32.70;;;;;;5033812;28;20486;-77
2022/08/21 15:29:06;;;;;;;0.70;0.70;;;35.70;33.30;;;;;;5034094;28;20439;-74
2022/08/21 15:31:33;;;;;;;0.77;0.77;;;35.00;34.30;;;;;;5033855;28;20464;-75
2022/08/21 15:34:01;;;;;;;0.73;0.73;;;33.90;35.60;;;;;;5033530;28;20854;-76
2022/08/21 15:36:28;;;;;;;0.80;0.70;;;33.30;36.60;;;;;;5033900;28;20489;-75
2022/08/21 15:38:54;;;;;;;0.70;0.70;;;32.60;37.50;;;;;;5033448;28;20496;-76
2022/08/21 15:41:21;;;;;;;1.13;0.70;;;32.50;38.00;;;;;;5033886;28;20475;-73
2022/08/21 15:43:50;;;;;;;0.80;0.70;;;33.10;37.40;;;;;;5033848;28;20447;-73
2022/08/21 15:46:20;;;;;;;0.70;0.70;;;32.60;37.30;;;;;;5034691;28;20447;-73
2022/08/21 15:48:47;;;;;;;0.70;0.60;;;31.80;38.00;;;;;;5035074;28;20447;-74
2022/08/21 15:51:16;;;;;;;0.80;0.70;;;30.90;39.70;;;;;;5033738;28;20844;-75
2022/08/21 15:53:46;;;;;;;0.80;0.70;;;30.70;40.30;;;;;;5038852;28;20443;-78
2022/08/21 15:56:21;;;;;;;0.80;0.60;;;29.90;41.20;;;;;;5038402;28;20451;-77
2022/08/21 15:58:48;;;;;;;1.00;0.80;;;29.50;41.60;;;;;;5036320;28;20455;-75
2022/08/21 16:01:15;;;;;;;0.80;0.70;;;29.50;42.00;;;;;;5033565;28;20533;-75
2022/08/21 16:03:42;;;;;;;0.80;0.70;;;29.30;42.30;;;;;;5034258;28;20463;-76
2022/08/21 16:06:09;;;;;;;0.70;0.60;;;29.10;42.40;;;;;;5035152;28;20498;-76